Youngstown, Illinois
Current Conditions -  °F | °C
As of 5:55 PM on Thursday 27 Nov 2014 (Local Time) from KMQB Reporting Station
Clear Clear  
Wind Chill: -3°   Ceiling: Unl
Heat Index:   Visibility: 10mi
Dew Point:   Wind: 7mph
Humidity: 68%   Direction: 310°NW
Pressure: 30.5"   Gusts: NA
Location:  40.7092°N, 90.6155°W
Report Text: KMQB 272355Z AUTO 31006KT 10SM CLR M13/M18 A3050 RMK AO2 T11301178 11057 21130
Loading
Personal Weather Stations






























Interactive Weather Map New forecast layout! Learn more

10-Day Weather Forecast

Advertisements
Track Severe Weather on mobile